Time;durP1;ratioP1;P1;durP2;ratioP2;P2;SDS_P1;SDS_P2;PMS_P1;PMS_P2;Temp;Humidity;BMP_temperature;BMP_pressure;BME280_temperature;BME280_humidity;BME280_pressure;Samples;Min_cycle;Max_cycle;Signal;HPM_P1;HPM_P2
2021/11/27 00:01:39;;;;;;;4.65;2.40;;;;;;;3.71;62.79;96988.19;10389626;28;20526;-64
2021/11/27 00:06:41;;;;;;;4.35;2.50;;;;;;;3.76;62.79;96985.25;10389075;28;20084;-64
2021/11/27 00:11:43;;;;;;;3.75;2.50;;;;;;;3.72;62.68;96979.50;10388444;28;20046;-64
2021/11/27 00:16:45;;;;;;;3.97;2.30;;;;;;;3.84;62.61;96978.53;10389133;28;20088;-64
2021/11/27 00:21:47;;;;;;;4.90;2.40;;;;;;;3.82;62.37;96972.66;10388605;28;20053;-64
2021/11/27 00:26:49;;;;;;;4.05;2.55;;;;;;;3.90;62.40;96971.25;10386807;28;20057;-64
2021/11/27 00:31:51;;;;;;;3.83;2.50;;;;;;;3.82;62.38;96962.31;10386842;28;21138;-64
2021/11/27 00:36:53;;;;;;;4.03;2.50;;;;;;;3.80;62.34;96959.03;10388148;28;20052;-64
2021/11/27 00:41:55;;;;;;;5.05;2.90;;;;;;;3.83;62.22;96957.97;10387190;28;20144;-64
2021/11/27 00:46:57;;;;;;;4.05;2.40;;;;;;;3.67;62.58;96952.38;10387136;28;20053;-64
2021/11/27 00:52:00;;;;;;;3.53;2.20;;;;;;;3.85;62.30;96953.53;10387224;28;20057;-64
2021/11/27 00:57:02;;;;;;;3.78;2.20;;;;;;;3.81;62.15;96957.25;10385008;28;20053;-64
2021/11/27 01:02:04;;;;;;;2.72;1.85;;;;;;;3.97;61.88;96942.19;10387130;28;20505;-65
2021/11/27 01:07:06;;;;;;;3.33;2.00;;;;;;;4.02;62.11;96939.25;10385958;28;20061;-64
2021/11/27 01:12:08;;;;;;;4.63;2.90;;;;;;;3.96;62.27;96950.09;10386349;28;20096;-64
2021/11/27 01:17:11;;;;;;;4.00;2.40;;;;;;;3.86;62.42;96945.63;10386025;28;20061;-64
2021/11/27 01:22:17;;;;;;;4.20;2.63;;;;;;;3.87;62.96;96946.47;10385966;28;20045;-64
2021/11/27 01:27:19;;;;;;;3.90;2.30;;;;;;;3.62;63.43;96941.59;10383808;28;20061;-64
2021/11/27 01:32:21;;;;;;;3.33;2.15;;;;;;;3.69;63.16;96938.41;10384987;28;20055;-64
2021/11/27 01:37:22;;;;;;;3.85;2.40;;;;;;;3.56;63.71;96947.22;10385495;28;20054;-64
2021/11/27 01:42:24;;;;;;;3.83;1.98;;;;;;;3.56;63.56;96952.38;10385321;28;20212;-64
2021/11/27 01:47:26;;;;;;;3.47;2.05;;;;;;;3.61;63.53;96945.09;10384920;28;20494;-64
2021/11/27 01:52:28;;;;;;;3.70;2.28;;;;;;;3.53;63.67;96942.31;10384415;28;20187;-64
2021/11/27 01:57:30;;;;;;;3.70;2.28;;;;;;;3.64;63.63;96940.50;10384853;28;20564;-64
2021/11/27 02:02:32;;;;;;;3.17;1.90;;;;;;;3.60;62.79;96930.56;10385539;28;20123;-64
2021/11/27 02:07:34;;;;;;;3.30;2.15;;;;;;;3.67;63.36;96940.28;10384620;28;20621;-64
2021/11/27 02:12:37;;;;;;;2.55;1.88;;;;;;;3.74;62.69;96920.75;10383500;28;20045;-64
2021/11/27 02:17:39;;;;;;;2.85;2.03;;;;;;;3.64;63.29;96930.16;10384074;28;20057;-64
2021/11/27 02:22:41;;;;;;;2.70;1.77;;;;;;;3.69;63.24;96922.06;10384507;28;20096;-64
2021/11/27 02:27:46;;;;;;;3.08;2.03;;;;;;;3.90;62.94;96915.22;10384236;28;20156;-64
2021/11/27 02:32:49;;;;;;;5.15;2.22;;;;;;;3.98;63.10;96907.66;10384249;28;20053;-64
2021/11/27 02:37:51;;;;;;;3.03;1.95;;;;;;;4.03;62.82;96907.28;10383866;28;20049;-64
2021/11/27 02:42:53;;;;;;;2.92;1.90;;;;;;;4.14;62.81;96912.41;10388245;28;20049;-64
2021/11/27 02:47:55;;;;;;;3.25;2.10;;;;;;;4.23;62.88;96904.69;10391900;28;20053;-64
2021/11/27 02:53:01;;;;;;;3.85;2.40;;;;;;;4.27;62.68;96900.91;10391656;28;20049;-64
2021/11/27 02:58:03;;;;;;;4.60;2.35;;;;;;;4.28;62.64;96894.81;10391034;28;20135;-64
2021/11/27 03:03:05;;;;;;;3.00;2.00;;;;;;;4.08;62.58;96894.78;10395018;28;20049;-64
2021/11/27 03:08:07;;;;;;;3.72;2.25;;;;;;;4.15;62.58;96908.88;10398247;28;20077;-64
2021/11/27 03:13:09;;;;;;;3.35;1.92;;;;;;;4.10;62.58;96903.25;10398753;28;20573;-64
2021/11/27 03:18:11;;;;;;;2.70;1.60;;;;;;;4.00;62.79;96902.34;10399677;28;20513;-64
2021/11/27 03:23:13;;;;;;;4.20;2.10;;;;;;;3.93;63.43;96896.84;10396395;28;20060;-64
2021/11/27 03:28:15;;;;;;;2.97;1.90;;;;;;;3.89;63.43;96895.47;10396646;28;20053;-64
2021/11/27 03:33:17;;;;;;;3.05;1.88;;;;;;;3.85;63.77;96894.06;10398321;28;20056;-64
2021/11/27 03:38:19;;;;;;;3.42;2.00;;;;;;;3.90;63.82;96894.53;10398235;28;20085;-64
2021/11/27 03:43:21;;;;;;;3.40;1.90;;;;;;;3.89;63.69;96887.72;10396935;28;20553;-64
2021/11/27 03:48:30;;;;;;;3.28;1.80;;;;;;;3.82;63.70;96899.47;10397141;28;20410;-64
2021/11/27 03:53:35;;;;;;;3.03;1.80;;;;;;;3.75;64.00;96900.91;10396480;28;20057;-64
2021/11/27 03:58:37;;;;;;;2.50;1.50;;;;;;;3.67;64.38;96898.94;10396931;28;20129;-65
2021/11/27 04:03:41;;;;;;;2.65;1.60;;;;;;;3.63;64.76;96907.03;10392955;28;20229;-64
2021/11/27 04:08:43;;;;;;;2.50;1.50;;;;;;;3.63;64.72;96905.28;10391776;28;20490;-64
2021/11/27 04:13:45;;;;;;;2.92;1.60;;;;;;;3.67;64.89;96911.84;10388826;28;20053;-64
2021/11/27 04:18:47;;;;;;;4.57;1.70;;;;;;;3.47;65.06;96911.78;10389104;28;20137;-64
2021/11/27 04:23:51;;;;;;;3.70;1.85;;;;;;;3.37;65.37;96910.88;10389403;28;20145;-64
2021/11/27 04:28:54;;;;;;;2.70;1.70;;;;;;;3.50;64.96;96911.53;10388740;28;20324;-64
2021/11/27 04:33:56;;;;;;;2.75;1.60;;;;;;;3.43;65.33;96915.56;10389659;28;20049;-64
2021/11/27 04:38:58;;;;;;;2.90;1.75;;;;;;;3.46;65.39;96921.28;10388826;28;20205;-64
2021/11/27 04:43:59;;;;;;;3.00;1.67;;;;;;;3.47;65.47;96929.88;10387455;28;20049;-63
2021/11/27 04:49:01;;;;;;;2.78;1.70;;;;;;;3.51;65.32;96946.78;10388355;28;20053;-64
2021/11/27 04:54:03;;;;;;;2.35;1.42;;;;;;;3.62;65.05;96941.59;10386033;28;20494;-63
2021/11/27 04:59:05;;;;;;;3.05;1.63;;;;;;;3.66;65.16;96953.34;10388699;28;20134;-64
2021/11/27 05:04:06;;;;;;;2.55;1.70;;;;;;;3.71;64.93;96952.00;10386520;28;20041;-63
2021/11/27 05:09:08;;;;;;;3.08;1.63;;;;;;;3.79;64.68;96964.31;10387603;28;20085;-63
2021/11/27 05:14:10;;;;;;;2.90;1.80;;;;;;;3.71;64.75;96961.53;10387336;28;20041;-64
2021/11/27 05:19:12;;;;;;;2.40;1.60;;;;;;;3.45;65.97;96970.50;10387339;28;20053;-64
2021/11/27 05:24:13;;;;;;;2.03;1.38;;;;;;;3.51;65.43;96975.19;10386764;28;20357;-63
2021/11/27 05:29:15;;;;;;;2.10;1.48;;;;;;;3.62;65.52;96977.78;10386282;28;20053;-63
2021/11/27 05:34:32;;;;;;;2.58;1.65;;;;;;;3.68;65.33;96977.28;10385692;28;20491;-64
2021/11/27 05:39:33;;;;;;;5.35;2.50;;;;;;;3.67;65.24;96975.63;10386226;28;20050;-64
2021/11/27 05:44:35;;;;;;;6.15;3.28;;;;;;;3.75;65.21;96981.00;10385934;28;20049;-64
2021/11/27 05:49:37;;;;;;;3.92;2.53;;;;;;;3.87;64.87;96985.25;10386552;28;20392;-64
2021/11/27 05:54:39;;;;;;;3.30;2.10;;;;;;;3.94;65.05;96991.59;10385642;28;20494;-65
2021/11/27 05:59:40;;;;;;;3.15;2.08;;;;;;;3.99;64.80;96993.78;10386098;28;20059;-64
2021/11/27 06:04:42;;;;;;;2.78;1.75;;;;;;;3.98;64.87;96992.16;10385834;28;20049;-64
2021/11/27 06:09:44;;;;;;;3.67;2.08;;;;;;;3.82;65.35;96997.69;10384690;28;20079;-64
2021/11/27 06:14:45;;;;;;;3.50;2.30;;;;;;;3.95;65.28;97007.91;10384586;28;20049;-64
2021/11/27 06:19:48;;;;;;;6.63;2.53;;;;;;;4.08;65.22;97008.56;10385020;28;20056;-64
2021/11/27 06:24:50;;;;;;;4.43;1.98;;;;;;;4.07;64.98;97014.72;10384754;28;20057;-65
2021/11/27 06:29:52;;;;;;;3.72;2.35;;;;;;;3.94;65.45;97014.03;10385050;28;20096;-64
2021/11/27 06:34:54;;;;;;;6.90;4.20;;;;;;;3.76;66.06;97027.41;10382863;28;20057;-64
2021/11/27 06:39:59;;;;;;;7.00;4.97;;;;;;;3.83;66.20;97035.50;10385120;28;20053;-64
2021/11/27 06:45:01;;;;;;;6.97;3.88;;;;;;;3.76;65.80;97049.88;10384623;28;20050;-65
2021/11/27 06:50:03;;;;;;;6.95;4.28;;;;;;;3.70;66.10;97051.16;10384619;28;20080;-65
2021/11/27 06:55:05;;;;;;;4.38;2.67;;;;;;;3.70;66.22;97048.56;10384209;28;20053;-64
2021/11/27 07:00:10;;;;;;;4.18;2.60;;;;;;;3.63;66.07;97062.91;10384470;28;20053;-64
2021/11/27 07:05:12;;;;;;;2.67;1.73;;;;;;;3.65;66.03;97075.72;10384466;28;20208;-65
2021/11/27 07:10:13;;;;;;;3.40;2.10;;;;;;;3.59;66.11;97069.25;10384997;28;20080;-65
2021/11/27 07:15:15;;;;;;;2.80;2.03;;;;;;;3.51;66.31;97079.38;10383613;28;20060;-65
2021/11/27 07:20:17;;;;;;;2.80;1.80;;;;;;;3.66;66.08;97090.28;10384263;28;20072;-64
2021/11/27 07:25:19;;;;;;;3.53;2.28;;;;;;;3.70;66.12;97099.47;10383737;28;20041;-65
2021/11/27 07:30:20;;;;;;;3.03;1.90;;;;;;;3.70;66.12;97107.22;10389190;28;20132;-64
2021/11/27 07:35:22;;;;;;;3.00;1.80;;;;;;;3.74;66.04;97118.97;10391003;28;20301;-64
2021/11/27 07:40:25;;;;;;;3.20;2.10;;;;;;;3.71;66.00;97117.41;10390856;28;20482;-64
2021/11/27 07:45:27;;;;;;;3.30;2.30;;;;;;;3.63;66.19;97134.44;10390424;28;20136;-65
2021/11/27 07:50:29;;;;;;;4.20;2.45;;;;;;;3.53;66.66;97146.41;10390352;28;20184;-64
2021/11/27 07:55:31;;;;;;;3.60;2.30;;;;;;;3.52;66.54;97158.50;10389408;28;20132;-64
2021/11/27 08:00:33;;;;;;;5.38;2.38;;;;;;;3.73;66.25;97162.06;10390501;28;20049;-64
2021/11/27 08:05:35;;;;;;;3.95;2.40;;;;;;;3.78;66.08;97159.94;10389197;28;20045;-64
2021/11/27 08:10:36;;;;;;;4.30;3.67;;;;;;;3.68;66.14;97178.88;10390605;28;20063;-64
2021/11/27 08:15:38;;;;;;;4.03;3.03;;;;;;;3.66;66.43;97178.97;10389041;28;20061;-64
2021/11/27 08:20:40;;;;;;;18.42;12.05;;;;;;;3.76;66.21;97182.50;10389947;28;20180;-64
2021/11/27 08:25:41;;;;;;;3.60;2.47;;;;;;;3.59;66.20;97182.13;10387853;28;20414;-65
2021/11/27 08:30:44;;;;;;;5.07;3.78;;;;;;;3.53;66.30;97191.19;10387845;28;20045;-64
2021/11/27 08:35:51;;;;;;;4.32;2.72;;;;;;;3.50;66.45;97201.72;10386952;28;20057;-65
2021/11/27 08:40:53;;;;;;;4.18;3.10;;;;;;;3.57;66.53;97212.44;10388623;28;20496;-64
2021/11/27 08:45:54;;;;;;;3.22;2.33;;;;;;;3.66;66.76;97216.94;10386636;28;20059;-64
2021/11/27 08:50:56;;;;;;;3.22;2.10;;;;;;;3.83;66.21;97212.16;10387852;28;20057;-64
2021/11/27 08:55:58;;;;;;;3.08;2.13;;;;;;;3.92;66.00;97223.56;10385308;28;20085;-65
2021/11/27 09:01:00;;;;;;;3.53;2.10;;;;;;;4.06;66.02;97235.44;10387364;28;20057;-64
2021/11/27 09:06:03;;;;;;;2.95;1.90;;;;;;;4.36;65.38;97233.91;10385743;28;20137;-65
2021/11/27 09:11:08;;;;;;;4.15;1.90;;;;;;;4.50;65.06;97235.44;10386041;28;20053;-73
2021/11/27 09:16:10;;;;;;;3.53;2.10;;;;;;;4.57;64.17;97252.13;10386884;28;20065;-70
2021/11/27 09:21:33;;;;;;;3.63;2.17;;;;;;;4.41;64.63;97277.56;10386750;28;20049;-71
2021/11/27 09:26:37;;;;;;;3.42;2.35;;;;;;;4.36;64.41;97277.91;10385391;28;20052;-70
2021/11/27 09:31:39;;;;;;;3.80;2.00;;;;;;;4.64;64.25;97279.16;10386124;28;20562;-71
2021/11/27 09:36:44;;;;;;;3.10;2.20;;;;;;;4.69;63.85;97290.00;10387221;28;20168;-71
2021/11/27 09:41:47;;;;;;;4.45;2.05;;;;;;;4.60;63.83;97299.31;10385025;28;20136;-72
2021/11/27 09:46:49;;;;;;;4.55;2.30;;;;;;;4.67;64.11;97308.25;10386905;28;20119;-72
2021/11/27 09:51:52;;;;;;;4.38;2.22;;;;;;;4.79;63.90;97314.22;10385857;28;20084;-71
2021/11/27 09:56:55;;;;;;;3.47;2.10;;;;;;;5.17;63.36;97316.38;10386124;28;20099;-70
2021/11/27 10:01:59;;;;;;;4.40;2.40;;;;;;;5.40;62.71;97311.03;10385274;28;20141;-71
2021/11/27 10:07:10;;;;;;;6.32;2.30;;;;;;;5.52;62.12;97319.59;10383269;28;20045;-70
2021/11/27 10:12:13;;;;;;;6.40;2.10;;;;;;;5.55;62.10;97316.75;10384880;28;20437;-71
2021/11/27 10:17:18;;;;;;;5.25;2.40;;;;;;;5.40;62.00;97323.16;10383989;28;20631;-71
2021/11/27 10:22:27;;;;;;;3.78;2.20;;;;;;;5.38;61.96;97325.06;10384418;28;20073;-73
2021/11/27 10:27:30;;;;;;;5.60;2.70;;;;;;;5.62;61.69;97337.81;10385863;28;20477;-71
2021/11/27 10:32:35;;;;;;;4.00;2.47;;;;;;;5.85;61.42;97335.00;10381651;28;20041;-70
2021/11/27 10:37:53;;;;;;;5.15;2.90;;;;;;;6.18;59.76;97328.81;10384770;28;20057;-69
2021/11/27 10:42:58;;;;;;;3.72;2.30;;;;;;;6.18;60.19;97337.44;10384948;28;20056;-69
2021/11/27 10:48:15;;;;;;;6.47;2.50;;;;;;;6.12;59.02;97337.91;10384321;28;21097;-70
2021/11/27 10:53:19;;;;;;;3.92;2.55;;;;;;;6.20;59.22;97327.75;10384697;28;20059;-70
2021/11/27 10:58:21;;;;;;;5.20;2.45;;;;;;;6.39;58.76;97337.44;10384112;28;20119;-70
2021/11/27 11:03:26;;;;;;;5.60;2.42;;;;;;;6.37;58.68;97344.53;10387746;28;20056;-70
2021/11/27 11:08:31;;;;;;;4.47;2.45;;;;;;;6.27;58.59;97352.25;10392833;28;20053;-70
2021/11/27 11:13:34;;;;;;;3.33;2.00;;;;;;;6.49;58.34;97366.84;10391115;28;20045;-70
2021/11/27 11:18:36;;;;;;;5.43;2.05;;;;;;;6.38;57.55;97374.72;10392513;28;20059;-70
2021/11/27 11:23:39;;;;;;;5.65;2.47;;;;;;;5.74;57.52;97384.31;10391582;28;20131;-70
2021/11/27 11:28:58;;;;;;;2.55;1.70;;;;;;;5.59;57.92;97387.31;10391060;28;20422;-71
2021/11/27 11:34:01;;;;;;;7.30;2.08;;;;;;;5.57;57.81;97395.25;10391550;28;20056;-70
2021/11/27 11:39:23;;;;;;;2.97;1.63;;;;;;;5.86;57.89;97406.66;10391567;28;20050;-71
2021/11/27 11:44:25;;;;;;;3.85;1.80;;;;;;;5.81;56.58;97414.03;10390978;28;20049;-71
2021/11/27 11:49:27;;;;;;;3.53;1.77;;;;;;;5.19;56.43;97408.59;10390839;28;20053;-69
2021/11/27 11:54:31;;;;;;;4.00;1.70;;;;;;;5.22;56.32;97415.31;10390341;28;20049;-70
2021/11/27 11:59:33;;;;;;;3.92;1.75;;;;;;;5.05;56.53;97420.97;10390500;28;20405;-70
2021/11/27 12:04:34;;;;;;;4.70;2.40;;;;;;;5.27;55.68;97423.53;10389368;28;20516;-70
2021/11/27 12:10:13;;;;;;;4.63;2.30;;;;;;;4.94;53.91;97426.16;10390595;28;20831;-70
2021/11/27 12:15:28;;;;;;;6.88;3.00;;;;;;;4.68;54.25;97430.72;10389546;28;20694;-71
2021/11/27 12:20:40;;;;;;;3.67;1.92;;;;;;;4.69;53.11;97433.22;10389932;28;20136;-70
2021/11/27 12:25:42;;;;;;;3.33;1.88;;;;;;;4.99;54.91;97429.22;10389691;28;20060;-70
2021/11/27 12:30:44;;;;;;;5.45;2.00;;;;;;;4.97;54.17;97431.94;10390367;28;20049;-70
2021/11/27 12:35:46;;;;;;;6.20;2.08;;;;;;;4.67;53.90;97431.69;10389404;28;20060;-70
2021/11/27 12:40:50;;;;;;;3.80;1.88;;;;;;;4.61;54.21;97435.56;10388453;28;20049;-70
2021/11/27 12:45:57;;;;;;;4.75;2.00;;;;;;;4.76;54.00;97443.09;10387523;28;20052;-70
2021/11/27 12:51:21;;;;;;;5.30;1.90;;;;;;;5.07;53.35;97447.59;10387951;28;20072;-70
2021/11/27 12:56:23;;;;;;;7.05;2.05;;;;;;;4.82;54.06;97442.66;10388242;28;20056;-70
2021/11/27 13:01:27;;;;;;;5.07;2.20;;;;;;;4.75;53.97;97444.03;10388102;28;20057;-70
2021/11/27 13:06:29;;;;;;;7.82;2.45;;;;;;;4.72;53.54;97449.47;10382510;28;20293;-70
2021/11/27 13:11:39;;;;;;;5.15;2.15;;;;;;;4.89;52.47;97452.41;10383834;28;20498;-71
2021/11/27 13:16:41;;;;;;;6.53;2.20;;;;;;;5.14;53.07;97457.38;10385868;28;20054;-70
2021/11/27 13:21:43;;;;;;;9.50;2.42;;;;;;;4.91;52.96;97460.88;10386659;28;20064;-70
2021/11/27 13:26:45;;;;;;;8.82;2.33;;;;;;;4.77;52.96;97455.94;10384577;28;20060;-70
2021/11/27 13:31:46;;;;;;;6.88;2.50;;;;;;;4.63;53.43;97456.97;10385080;28;20140;-69
2021/11/27 13:36:51;;;;;;;8.35;2.47;;;;;;;4.50;53.71;97458.81;10385504;28;20080;-69
2021/11/27 13:42:16;;;;;;;13.32;5.25;;;;;;;4.29;53.79;97467.34;10385253;28;20056;-69
2021/11/27 13:47:20;;;;;;;9.48;2.40;;;;;;;4.33;53.77;97479.94;10383779;28;20049;-69
2021/11/27 13:52:28;;;;;;;5.93;2.63;;;;;;;4.37;53.92;97483.13;10385209;28;20049;-69
2021/11/27 13:57:30;;;;;;;8.55;2.40;;;;;;;4.43;54.33;97493.84;10384572;28;20053;-69
2021/11/27 14:02:37;;;;;;;10.95;3.20;;;;;;;4.37;53.83;97498.66;10385167;28;20052;-69
2021/11/27 14:07:42;;;;;;;10.23;2.42;;;;;;;4.39;54.32;97489.03;10383882;28;20057;-70
2021/11/27 14:12:49;;;;;;;7.90;2.10;;;;;;;4.35;53.67;97497.94;10377950;28;20045;-69
2021/11/27 14:18:11;;;;;;;12.90;3.40;;;;;;;4.29;53.48;97506.16;10381682;28;20087;-69
2021/11/27 14:23:18;;;;;;;12.93;4.75;;;;;;;4.24;54.19;97510.84;10382961;28;20132;-70
2021/11/27 14:28:21;;;;;;;8.98;3.22;;;;;;;4.14;53.45;97513.28;10376586;28;20077;-70
2021/11/27 14:33:29;;;;;;;10.27;3.53;;;;;;;4.15;52.99;97514.91;10376532;28;20092;-70
2021/11/27 14:38:41;;;;;;;10.15;3.25;;;;;;;4.05;53.26;97519.09;10388964;28;20324;-70
2021/11/27 14:43:48;;;;;;;12.18;5.35;;;;;;;3.82;53.62;97522.47;10390185;28;20428;-70
2021/11/27 14:48:50;;;;;;;11.45;3.42;;;;;;;3.79;54.11;97533.00;10386185;28;20053;-70
2021/11/27 14:53:52;;;;;;;6.05;2.90;;;;;;;3.72;54.57;97537.78;10388908;28;20052;-69
2021/11/27 14:58:53;;;;;;;9.48;2.67;;;;;;;3.69;54.79;97548.34;10389858;28;20045;-70
2021/11/27 15:03:55;;;;;;;9.88;3.60;;;;;;;3.60;55.31;97550.75;10387556;28;20057;-70
2021/11/27 15:08:57;;;;;;;9.93;3.42;;;;;;;3.46;55.81;97556.84;10388338;28;20072;-69
2021/11/27 15:14:02;;;;;;;7.45;2.47;;;;;;;3.32;56.00;97553.56;10392323;28;20053;-69
2021/11/27 15:19:04;;;;;;;7.93;2.47;;;;;;;3.19;55.84;97555.34;10390426;28;20532;-70
2021/11/27 15:24:06;;;;;;;8.85;2.55;;;;;;;3.13;56.15;97555.75;10390895;28;20516;-69
2021/11/27 15:29:08;;;;;;;9.05;2.65;;;;;;;3.02;56.25;97553.88;10391179;28;20300;-69
2021/11/27 15:34:11;;;;;;;9.88;2.95;;;;;;;2.90;56.66;97559.88;10391665;28;20053;-70
2021/11/27 15:39:13;;;;;;;14.63;5.03;;;;;;;2.75;56.46;97566.84;10392333;28;20058;-70
2021/11/27 15:44:15;;;;;;;13.60;4.82;;;;;;;2.56;57.20;97571.56;10391097;28;20519;-70
2021/11/27 15:49:18;;;;;;;10.05;3.92;;;;;;;2.44;58.02;97574.94;10390214;28;20053;-70
2021/11/27 15:54:19;;;;;;;8.75;2.97;;;;;;;2.41;58.01;97579.47;10390915;28;20052;-70
2021/11/27 15:59:21;;;;;;;12.13;4.72;;;;;;;2.27;57.94;97576.94;10390893;28;20497;-70
2021/11/27 16:04:24;;;;;;;14.35;6.35;;;;;;;2.09;58.74;97581.53;10390472;28;20050;-70
2021/11/27 16:09:25;;;;;;;13.13;4.95;;;;;;;1.98;58.89;97589.94;10390578;28;20744;-71
2021/11/27 16:14:27;;;;;;;8.25;3.65;;;;;;;1.93;59.31;97593.72;10389615;28;20149;-71
2021/11/27 16:19:30;;;;;;;8.65;2.33;;;;;;;1.91;59.54;97598.16;10389800;28;20168;-70
2021/11/27 16:24:32;;;;;;;9.43;2.85;;;;;;;1.81;59.84;97605.59;10404964;28;20560;-70
2021/11/27 16:29:34;;;;;;;10.80;3.47;;;;;;;1.72;60.04;97615.63;10390164;28;20712;-70
2021/11/27 16:34:35;;;;;;;22.35;9.02;;;;;;;1.55;60.11;97614.06;10389359;28;20054;-70
2021/11/27 16:39:41;;;;;;;17.50;7.13;;;;;;;1.33;60.80;97631.72;10389035;28;20092;-70
2021/11/27 16:44:42;;;;;;;10.52;4.25;;;;;;;1.34;60.87;97641.94;10386839;28;20049;-70
2021/11/27 16:49:44;;;;;;;11.07;4.00;;;;;;;1.41;61.26;97654.44;10389102;28;20421;-70
2021/11/27 16:54:46;;;;;;;12.00;4.45;;;;;;;1.45;61.18;97651.59;10387061;28;20277;-70
2021/11/27 16:59:51;;;;;;;13.00;4.80;;;;;;;1.45;61.24;97653.34;10386893;28;20052;-70
2021/11/27 17:04:53;;;;;;;16.85;8.73;;;;;;;1.39;61.08;97659.69;10388083;28;20506;-70
2021/11/27 17:09:55;;;;;;;10.73;5.60;;;;;;;1.20;61.00;97654.78;10387644;28;20049;-70
2021/11/27 17:14:57;;;;;;;11.63;5.63;;;;;;;1.04;61.36;97660.91;10386055;28;20057;-70
2021/11/27 17:19:59;;;;;;;11.00;5.10;;;;;;;0.96;61.64;97674.22;10385859;28;20060;-69
2021/11/27 17:25:01;;;;;;;12.73;4.13;;;;;;;1.06;61.94;97671.94;10387571;28;20585;-69
2021/11/27 17:30:05;;;;;;;14.48;4.18;;;;;;;1.01;62.03;97676.53;10387120;28;20065;-69
2021/11/27 17:35:08;;;;;;;11.20;4.00;;;;;;;0.95;62.24;97679.47;10387137;28;20105;-68
2021/11/27 17:40:11;;;;;;;14.02;4.32;;;;;;;0.87;62.20;97686.78;10386521;28;20461;-69
2021/11/27 17:45:13;;;;;;;13.00;4.82;;;;;;;0.86;62.61;97683.38;10386591;28;20053;-69
2021/11/27 17:50:14;;;;;;;17.48;8.23;;;;;;;0.89;62.53;97685.75;10387427;28;20053;-69
2021/11/27 17:55:16;;;;;;;13.77;6.65;;;;;;;0.84;62.66;97687.78;10385824;28;20060;-69
2021/11/27 18:00:18;;;;;;;15.60;6.00;;;;;;;0.71;62.89;97697.09;10385558;28;20053;-69
2021/11/27 18:05:20;;;;;;;12.65;5.32;;;;;;;0.70;62.96;97699.75;10386045;28;20055;-69
2021/11/27 18:10:21;;;;;;;12.23;5.07;;;;;;;0.76;62.92;97704.56;10384843;28;20281;-69
2021/11/27 18:15:23;;;;;;;18.58;5.72;;;;;;;0.80;62.69;97712.03;10386030;28;20150;-69
2021/11/27 18:20:29;;;;;;;13.82;5.78;;;;;;;0.88;62.97;97709.84;10383870;28;20422;-69
2021/11/27 18:25:45;;;;;;;13.27;5.00;;;;;;;0.95;62.80;97707.78;10385323;28;20140;-70
2021/11/27 18:30:57;;;;;;;16.45;5.68;;;;;;;0.95;62.96;97711.16;10385652;28;20056;-69
2021/11/27 18:36:03;;;;;;;17.15;5.60;;;;;;;0.92;62.91;97713.09;10384990;28;20108;-68
2021/11/27 18:41:06;;;;;;;11.60;5.20;;;;;;;0.91;62.86;97726.88;10385584;28;20051;-69
2021/11/27 18:46:08;;;;;;;12.82;5.82;;;;;;;0.88;62.85;97720.16;10386216;28;20046;-69
2021/11/27 18:51:10;;;;;;;10.48;5.78;;;;;;;0.81;62.94;97726.53;10384907;28;20054;-69
2021/11/27 18:56:13;;;;;;;12.85;6.40;;;;;;;0.66;62.73;97727.41;10382902;28;20060;-70
2021/11/27 19:01:14;;;;;;;14.43;6.47;;;;;;;0.33;63.52;97736.94;10382448;28;20433;-69
2021/11/27 19:06:16;;;;;;;17.95;6.80;;;;;;;0.40;63.77;97751.13;10384414;28;20494;-69
2021/11/27 19:11:18;;;;;;;16.40;7.90;;;;;;;0.61;63.56;97756.88;10399798;28;20053;-69
2021/11/27 19:16:20;;;;;;;21.75;10.45;;;;;;;0.58;63.58;97763.00;10401234;28;20054;-69
2021/11/27 19:21:22;;;;;;;21.50;10.95;;;;;;;0.63;63.39;97755.03;10385196;28;20064;-69
2021/11/27 19:26:24;;;;;;;19.98;9.27;;;;;;;0.66;63.61;97760.00;10390466;28;20053;-70
2021/11/27 19:31:26;;;;;;;20.33;9.35;;;;;;;0.66;63.24;97755.69;10391465;28;20064;-69
2021/11/27 19:36:28;;;;;;;16.65;9.10;;;;;;;0.54;63.46;97757.16;10391239;28;20257;-69
2021/11/27 19:41:30;;;;;;;16.33;7.82;;;;;;;0.62;63.61;97756.78;10390685;28;20046;-69
2021/11/27 19:46:32;;;;;;;15.63;7.40;;;;;;;0.69;63.54;97770.94;10390804;28;20045;-69
2021/11/27 19:51:38;;;;;;;16.50;7.78;;;;;;;0.72;63.54;97754.53;10389247;28;20057;-69
2021/11/27 19:56:43;;;;;;;24.48;11.05;;;;;;;0.72;63.55;97768.22;10388771;28;20400;-70
2021/11/27 20:01:44;;;;;;;27.65;12.63;;;;;;;0.69;63.49;97776.09;10390828;28;20099;-69
2021/11/27 20:06:46;;;;;;;22.65;11.93;;;;;;;0.58;63.66;97775.03;10389827;28;20358;-68
2021/11/27 20:11:48;;;;;;;20.75;11.27;;;;;;;0.57;63.74;97771.63;10390780;28;20087;-69
2021/11/27 20:16:50;;;;;;;17.55;8.77;;;;;;;0.64;63.93;97767.81;10390043;28;20063;-69
2021/11/27 20:21:52;;;;;;;18.20;7.72;;;;;;;0.78;63.92;97779.91;10389312;28;20056;-69
2021/11/27 20:26:54;;;;;;;16.65;7.20;;;;;;;0.70;63.69;97780.34;10390121;28;20049;-70
2021/11/27 20:31:56;;;;;;;11.70;6.53;;;;;;;0.59;64.13;97786.97;10389656;28;20054;-68
2021/11/27 20:36:58;;;;;;;14.52;6.80;;;;;;;0.79;63.95;97787.53;10388637;28;20054;-69
2021/11/27 20:42:01;;;;;;;16.75;7.20;;;;;;;0.83;63.87;97791.59;10389001;28;20053;-69
2021/11/27 20:47:04;;;;;;;16.38;7.60;;;;;;;0.84;63.78;97795.84;10389398;28;20052;-70
2021/11/27 20:52:06;;;;;;;18.52;9.95;;;;;;;0.78;63.64;97790.19;10386136;28;20395;-69
2021/11/27 20:57:07;;;;;;;19.10;11.30;;;;;;;0.88;63.92;97796.50;10387500;28;20046;-69
2021/11/27 21:02:09;;;;;;;16.83;9.55;;;;;;;0.95;63.83;97806.38;10388631;28;20447;-70
2021/11/27 21:07:11;;;;;;;19.13;9.73;;;;;;;1.05;63.56;97812.69;10387710;28;20092;-69
2021/11/27 21:12:14;;;;;;;17.40;8.82;;;;;;;1.06;63.45;97806.63;10387883;28;20159;-68
2021/11/27 21:17:17;;;;;;;16.48;9.23;;;;;;;1.23;63.63;97803.13;10387580;28;20305;-69
2021/11/27 21:22:19;;;;;;;16.27;8.27;;;;;;;1.31;63.11;97812.06;10385156;28;20569;-69
2021/11/27 21:27:21;;;;;;;17.55;9.52;;;;;;;1.34;63.27;97816.19;10387395;28;20053;-69
2021/11/27 21:32:23;;;;;;;21.33;9.93;;;;;;;1.43;63.15;97810.56;10387263;28;20144;-69
2021/11/27 21:37:26;;;;;;;19.17;9.38;;;;;;;1.52;63.16;97804.06;10386411;28;20169;-69
2021/11/27 21:42:27;;;;;;;16.38;9.10;;;;;;;1.63;63.00;97804.25;10385592;28;20045;-69
2021/11/27 21:47:30;;;;;;;15.48;9.55;;;;;;;1.67;63.08;97804.00;10386582;28;20187;-69
2021/11/27 21:52:32;;;;;;;19.17;9.02;;;;;;;1.66;62.86;97797.19;10386029;28;20057;-69
2021/11/27 21:57:33;;;;;;;19.40;10.23;;;;;;;1.72;63.00;97796.84;10386277;28;20041;-66
2021/11/27 22:02:35;;;;;;;19.40;10.50;;;;;;;1.79;62.85;97805.84;10379161;28;20064;-66
2021/11/27 22:07:37;;;;;;;19.73;10.50;;;;;;;1.65;62.65;97803.25;10383182;28;20049;-66
2021/11/27 22:12:41;;;;;;;23.75;10.73;;;;;;;1.65;62.79;97805.00;10383200;28;20045;-66
2021/11/27 22:17:42;;;;;;;20.27;10.35;;;;;;;1.65;63.04;97805.00;10382697;28;20068;-65
2021/11/27 22:22:45;;;;;;;17.55;10.35;;;;;;;1.76;63.15;97808.63;10379883;28;20049;-66
2021/11/27 22:27:47;;;;;;;21.58;10.55;;;;;;;1.85;63.23;97813.22;10381444;28;20049;-66
2021/11/27 22:32:49;;;;;;;21.30;12.05;;;;;;;1.85;63.00;97813.22;10378712;28;20390;-65
2021/11/27 22:37:51;;;;;;;23.25;11.80;;;;;;;1.81;63.00;97808.34;10380571;28;20048;-65
2021/11/27 22:42:52;;;;;;;18.42;11.68;;;;;;;1.72;63.27;97801.16;10380803;28;20767;-65
2021/11/27 22:47:54;;;;;;;21.20;12.70;;;;;;;1.59;63.45;97800.19;10382952;28;20041;-65
2021/11/27 22:52:58;;;;;;;21.92;11.50;;;;;;;1.56;63.34;97800.38;10382831;28;20148;-65
2021/11/27 22:58:01;;;;;;;21.48;11.88;;;;;;;1.38;63.89;97802.22;10385688;28;20056;-66
2021/11/27 23:03:03;;;;;;;19.75;12.20;;;;;;;1.40;64.18;97812.47;10392571;28;20508;-66
2021/11/27 23:08:05;;;;;;;26.10;14.98;;;;;;;1.47;64.23;97806.03;10392233;28;20045;-66
2021/11/27 23:13:07;;;;;;;36.00;18.05;;;;;;;1.53;64.18;97811.69;10392105;28;20050;-66
2021/11/27 23:18:10;;;;;;;27.67;16.80;;;;;;;1.53;64.41;97806.53;10391185;28;20676;-65
2021/11/27 23:23:15;;;;;;;25.80;16.45;;;;;;;1.47;64.17;97800.91;10391946;28;20059;-65
2021/11/27 23:28:19;;;;;;;23.85;11.88;;;;;;;1.43;64.51;97801.97;10391569;28;20447;-65
2021/11/27 23:33:21;;;;;;;21.90;11.77;;;;;;;1.52;64.72;97798.91;10389664;28;20054;-65
2021/11/27 23:38:22;;;;;;;26.00;13.00;;;;;;;1.63;64.61;97799.09;10391128;28;20057;-65